sensor_id;sensor_type;location;lat;lon;timestamp;P1;durP1;ratioP1;P2;durP2;ratioP2
45466;SDS011;31212;49.734;8.490;2023-07-13T00:01:12;2.85;;;0.93;;
45466;SDS011;31212;49.734;8.490;2023-07-13T00:03:38;2.30;;;1.10;;
45466;SDS011;31212;49.734;8.490;2023-07-13T00:06:07;3.33;;;0.60;;
45466;SDS011;31212;49.734;8.490;2023-07-13T00:08:34;2.53;;;0.80;;
45466;SDS011;31212;49.734;8.490;2023-07-13T00:11:02;3.70;;;1.42;;
45466;SDS011;31212;49.734;8.490;2023-07-13T00:13:29;2.03;;;0.90;;
45466;SDS011;31212;49.734;8.490;2023-07-13T00:15:56;2.35;;;0.90;;
45466;SDS011;31212;49.734;8.490;2023-07-13T00:18:23;1.23;;;0.77;;
45466;SDS011;31212;49.734;8.490;2023-07-13T00:20:50;1.15;;;0.90;;
45466;SDS011;31212;49.734;8.490;2023-07-13T00:23:18;1.40;;;0.98;;
45466;SDS011;31212;49.734;8.490;2023-07-13T00:25:44;1.00;;;0.82;;
45466;SDS011;31212;49.734;8.490;2023-07-13T00:28:11;2.22;;;0.93;;
45466;SDS011;31212;49.734;8.490;2023-07-13T00:30:37;3.10;;;0.98;;
45466;SDS011;31212;49.734;8.490;2023-07-13T00:33:04;1.30;;;1.02;;
45466;SDS011;31212;49.734;8.490;2023-07-13T00:35:30;1.50;;;0.90;;
45466;SDS011;31212;49.734;8.490;2023-07-13T00:37:58;7.45;;;0.93;;
45466;SDS011;31212;49.734;8.490;2023-07-13T00:40:26;3.17;;;1.02;;
45466;SDS011;31212;49.734;8.490;2023-07-13T00:42:52;1.52;;;1.00;;
45466;SDS011;31212;49.734;8.490;2023-07-13T00:48:23;2.95;;;0.98;;
45466;SDS011;31212;49.734;8.490;2023-07-13T00:50:54;1.80;;;1.20;;
45466;SDS011;31212;49.734;8.490;2023-07-13T00:53:23;9.52;;;1.20;;
45466;SDS011;31212;49.734;8.490;2023-07-13T00:55:52;5.18;;;1.35;;
45466;SDS011;31212;49.734;8.490;2023-07-13T00:58:21;4.38;;;1.50;;
45466;SDS011;31212;49.734;8.490;2023-07-13T01:00:48;2.25;;;1.35;;
45466;SDS011;31212;49.734;8.490;2023-07-13T01:03:16;3.97;;;1.30;;
45466;SDS011;31212;49.734;8.490;2023-07-13T01:05:44;1.60;;;0.90;;
45466;SDS011;31212;49.734;8.490;2023-07-13T01:08:13;4.28;;;1.45;;
45466;SDS011;31212;49.734;8.490;2023-07-13T01:10:40;3.88;;;0.93;;
45466;SDS011;31212;49.734;8.490;2023-07-13T01:13:10;1.85;;;1.20;;
45466;SDS011;31212;49.734;8.490;2023-07-13T01:15:37;2.78;;;1.52;;
45466;SDS011;31212;49.734;8.490;2023-07-13T01:18:06;3.05;;;1.40;;
45466;SDS011;31212;49.734;8.490;2023-07-13T01:20:34;6.18;;;1.60;;
45466;SDS011;31212;49.734;8.490;2023-07-13T01:23:04;1.92;;;1.48;;
45466;SDS011;31212;49.734;8.490;2023-07-13T01:25:32;5.47;;;1.42;;
45466;SDS011;31212;49.734;8.490;2023-07-13T01:28:00;3.42;;;1.17;;
45466;SDS011;31212;49.734;8.490;2023-07-13T01:30:26;1.63;;;1.00;;
45466;SDS011;31212;49.734;8.490;2023-07-13T01:32:53;1.60;;;1.17;;
45466;SDS011;31212;49.734;8.490;2023-07-13T01:35:19;1.85;;;1.17;;
45466;SDS011;31212;49.734;8.490;2023-07-13T01:37:45;1.95;;;0.82;;
45466;SDS011;31212;49.734;8.490;2023-07-13T01:40:15;2.33;;;1.20;;
45466;SDS011;31212;49.734;8.490;2023-07-13T01:42:42;2.33;;;1.45;;
45466;SDS011;31212;49.734;8.490;2023-07-13T01:45:08;4.57;;;1.60;;
45466;SDS011;31212;49.734;8.490;2023-07-13T01:47:35;3.53;;;0.90;;
45466;SDS011;31212;49.734;8.490;2023-07-13T01:50:02;3.17;;;1.45;;
45466;SDS011;31212;49.734;8.490;2023-07-13T01:52:28;2.53;;;1.73;;
45466;SDS011;31212;49.734;8.490;2023-07-13T01:54:57;4.05;;;1.63;;
45466;SDS011;31212;49.734;8.490;2023-07-13T01:57:25;2.65;;;1.10;;
45466;SDS011;31212;49.734;8.490;2023-07-13T01:59:51;3.60;;;1.52;;
45466;SDS011;31212;49.734;8.490;2023-07-13T02:02:18;1.27;;;0.98;;
45466;SDS011;31212;49.734;8.490;2023-07-13T02:04:44;2.38;;;1.30;;
45466;SDS011;31212;49.734;8.490;2023-07-13T02:07:11;1.75;;;1.25;;
45466;SDS011;31212;49.734;8.490;2023-07-13T02:09:37;2.00;;;1.58;;
45466;SDS011;31212;49.734;8.490;2023-07-13T02:12:04;2.35;;;1.40;;
45466;SDS011;31212;49.734;8.490;2023-07-13T02:14:33;3.20;;;1.40;;
45466;SDS011;31212;49.734;8.490;2023-07-13T02:17:00;3.72;;;1.50;;
45466;SDS011;31212;49.734;8.490;2023-07-13T02:19:26;2.03;;;0.98;;
45466;SDS011;31212;49.734;8.490;2023-07-13T02:21:53;1.75;;;1.30;;
45466;SDS011;31212;49.734;8.490;2023-07-13T02:24:19;4.78;;;1.33;;
45466;SDS011;31212;49.734;8.490;2023-07-13T02:26:46;2.50;;;1.30;;
45466;SDS011;31212;49.734;8.490;2023-07-13T02:29:13;1.27;;;1.08;;
45466;SDS011;31212;49.734;8.490;2023-07-13T02:31:41;6.32;;;1.90;;
45466;SDS011;31212;49.734;8.490;2023-07-13T02:34:08;1.85;;;1.35;;
45466;SDS011;31212;49.734;8.490;2023-07-13T02:36:35;2.05;;;1.30;;
45466;SDS011;31212;49.734;8.490;2023-07-13T02:39:03;3.95;;;1.33;;
45466;SDS011;31212;49.734;8.490;2023-07-13T02:41:34;2.38;;;1.33;;
45466;SDS011;31212;49.734;8.490;2023-07-13T02:44:01;1.42;;;0.90;;
45466;SDS011;31212;49.734;8.490;2023-07-13T02:46:29;4.70;;;1.70;;
45466;SDS011;31212;49.734;8.490;2023-07-13T02:48:56;1.80;;;1.42;;
45466;SDS011;31212;49.734;8.490;2023-07-13T02:51:23;2.45;;;0.90;;
45466;SDS011;31212;49.734;8.490;2023-07-13T02:53:49;2.22;;;1.17;;
45466;SDS011;31212;49.734;8.490;2023-07-13T02:56:16;2.20;;;1.25;;
45466;SDS011;31212;49.734;8.490;2023-07-13T02:58:43;3.03;;;1.27;;
45466;SDS011;31212;49.734;8.490;2023-07-13T03:01:10;5.57;;;1.65;;
45466;SDS011;31212;49.734;8.490;2023-07-13T03:03:38;2.83;;;1.50;;
45466;SDS011;31212;49.734;8.490;2023-07-13T03:06:06;2.42;;;1.23;;
45466;SDS011;31212;49.734;8.490;2023-07-13T03:08:41;1.70;;;1.38;;
45466;SDS011;31212;49.734;8.490;2023-07-13T03:11:09;10.05;;;1.70;;
45466;SDS011;31212;49.734;8.490;2023-07-13T03:13:40;10.43;;;1.50;;
45466;SDS011;31212;49.734;8.490;2023-07-13T03:16:08;2.75;;;1.40;;
45466;SDS011;31212;49.734;8.490;2023-07-13T03:18:35;2.67;;;1.52;;
45466;SDS011;31212;49.734;8.490;2023-07-13T03:21:07;1.83;;;1.58;;
45466;SDS011;31212;49.734;8.490;2023-07-13T03:23:34;9.05;;;1.65;;
45466;SDS011;31212;49.734;8.490;2023-07-13T03:26:01;8.98;;;2.10;;
45466;SDS011;31212;49.734;8.490;2023-07-13T03:28:30;1.92;;;1.48;;
45466;SDS011;31212;49.734;8.490;2023-07-13T03:31:00;1.80;;;1.10;;
45466;SDS011;31212;49.734;8.490;2023-07-13T03:33:30;1.65;;;1.40;;
45466;SDS011;31212;49.734;8.490;2023-07-13T03:35:57;4.63;;;1.88;;
45466;SDS011;31212;49.734;8.490;2023-07-13T03:38:26;5.53;;;2.00;;
45466;SDS011;31212;49.734;8.490;2023-07-13T03:40:53;5.45;;;1.80;;
45466;SDS011;31212;49.734;8.490;2023-07-13T03:43:19;3.78;;;2.00;;
45466;SDS011;31212;49.734;8.490;2023-07-13T03:45:46;3.35;;;1.33;;
45466;SDS011;31212;49.734;8.490;2023-07-13T03:48:13;4.28;;;1.30;;
45466;SDS011;31212;49.734;8.490;2023-07-13T03:50:40;4.07;;;1.40;;
45466;SDS011;31212;49.734;8.490;2023-07-13T03:53:07;3.72;;;1.80;;
45466;SDS011;31212;49.734;8.490;2023-07-13T03:55:35;3.65;;;1.38;;
45466;SDS011;31212;49.734;8.490;2023-07-13T04:00:51;2.15;;;1.58;;
45466;SDS011;31212;49.734;8.490;2023-07-13T04:03:18;2.55;;;1.80;;
45466;SDS011;31212;49.734;8.490;2023-07-13T04:05:45;2.63;;;1.58;;
45466;SDS011;31212;49.734;8.490;2023-07-13T04:08:11;3.78;;;1.52;;
45466;SDS011;31212;49.734;8.490;2023-07-13T04:10:40;3.58;;;2.13;;
45466;SDS011;31212;49.734;8.490;2023-07-13T04:13:06;2.03;;;1.40;;
45466;SDS011;31212;49.734;8.490;2023-07-13T04:15:33;2.65;;;1.50;;
45466;SDS011;31212;49.734;8.490;2023-07-13T04:18:00;2.85;;;1.67;;
45466;SDS011;31212;49.734;8.490;2023-07-13T04:20:29;1.63;;;1.10;;
45466;SDS011;31212;49.734;8.490;2023-07-13T04:22:55;4.68;;;1.65;;
45466;SDS011;31212;49.734;8.490;2023-07-13T04:25:22;2.60;;;1.48;;
45466;SDS011;31212;49.734;8.490;2023-07-13T04:27:50;4.45;;;1.77;;
45466;SDS011;31212;49.734;8.490;2023-07-13T04:30:17;2.97;;;1.75;;
45466;SDS011;31212;49.734;8.490;2023-07-13T04:32:43;3.20;;;2.08;;
45466;SDS011;31212;49.734;8.490;2023-07-13T04:35:10;2.35;;;1.70;;
45466;SDS011;31212;49.734;8.490;2023-07-13T04:37:36;6.05;;;1.58;;
45466;SDS011;31212;49.734;8.490;2023-07-13T04:40:03;3.65;;;1.30;;
45466;SDS011;31212;49.734;8.490;2023-07-13T04:42:30;4.82;;;1.63;;
45466;SDS011;31212;49.734;8.490;2023-07-13T04:44:57;5.28;;;2.10;;
45466;SDS011;31212;49.734;8.490;2023-07-13T04:47:24;3.13;;;2.45;;
45466;SDS011;31212;49.734;8.490;2023-07-13T04:49:50;7.30;;;2.10;;
45466;SDS011;31212;49.734;8.490;2023-07-13T04:52:17;2.08;;;1.67;;
45466;SDS011;31212;49.734;8.490;2023-07-13T04:54:44;2.75;;;1.35;;
45466;SDS011;31212;49.734;8.490;2023-07-13T04:57:10;2.28;;;2.08;;
45466;SDS011;31212;49.734;8.490;2023-07-13T04:59:36;6.03;;;2.03;;
45466;SDS011;31212;49.734;8.490;2023-07-13T05:02:04;2.45;;;1.60;;
45466;SDS011;31212;49.734;8.490;2023-07-13T05:04:31;2.42;;;1.75;;
45466;SDS011;31212;49.734;8.490;2023-07-13T05:06:58;3.42;;;2.00;;
45466;SDS011;31212;49.734;8.490;2023-07-13T05:09:25;6.15;;;1.80;;
45466;SDS011;31212;49.734;8.490;2023-07-13T05:11:51;3.17;;;1.60;;
45466;SDS011;31212;49.734;8.490;2023-07-13T05:14:18;3.10;;;1.92;;
45466;SDS011;31212;49.734;8.490;2023-07-13T05:16:44;2.90;;;1.40;;
45466;SDS011;31212;49.734;8.490;2023-07-13T05:19:12;2.25;;;1.63;;
45466;SDS011;31212;49.734;8.490;2023-07-13T05:21:39;2.03;;;1.45;;
45466;SDS011;31212;49.734;8.490;2023-07-13T05:24:06;1.73;;;1.33;;
45466;SDS011;31212;49.734;8.490;2023-07-13T05:26:32;1.67;;;1.10;;
45466;SDS011;31212;49.734;8.490;2023-07-13T05:28:59;2.25;;;1.60;;
45466;SDS011;31212;49.734;8.490;2023-07-13T05:31:25;4.82;;;1.33;;
45466;SDS011;31212;49.734;8.490;2023-07-13T05:33:53;2.92;;;1.38;;
45466;SDS011;31212;49.734;8.490;2023-07-13T05:36:20;2.67;;;1.30;;
45466;SDS011;31212;49.734;8.490;2023-07-13T05:38:47;3.85;;;1.40;;
45466;SDS011;31212;49.734;8.490;2023-07-13T05:41:16;1.58;;;1.10;;
45466;SDS011;31212;49.734;8.490;2023-07-13T05:43:43;3.45;;;1.23;;
45466;SDS011;31212;49.734;8.490;2023-07-13T05:46:10;3.85;;;1.40;;
45466;SDS011;31212;49.734;8.490;2023-07-13T05:48:36;1.45;;;1.30;;
45466;SDS011;31212;49.734;8.490;2023-07-13T05:51:03;1.58;;;1.20;;
45466;SDS011;31212;49.734;8.490;2023-07-13T05:53:31;1.05;;;0.95;;
45466;SDS011;31212;49.734;8.490;2023-07-13T05:55:58;3.00;;;1.33;;
45466;SDS011;31212;49.734;8.490;2023-07-13T05:58:24;4.30;;;1.38;;
45466;SDS011;31212;49.734;8.490;2023-07-13T06:00:58;2.35;;;1.63;;
45466;SDS011;31212;49.734;8.490;2023-07-13T06:03:26;2.60;;;1.30;;
45466;SDS011;31212;49.734;8.490;2023-07-13T06:05:53;1.60;;;1.08;;
45466;SDS011;31212;49.734;8.490;2023-07-13T06:08:19;5.28;;;1.60;;
45466;SDS011;31212;49.734;8.490;2023-07-13T06:10:47;1.55;;;1.05;;
45466;SDS011;31212;49.734;8.490;2023-07-13T06:13:14;1.33;;;0.98;;
45466;SDS011;31212;49.734;8.490;2023-07-13T06:15:40;1.77;;;1.23;;
45466;SDS011;31212;49.734;8.490;2023-07-13T06:18:07;4.38;;;1.35;;
45466;SDS011;31212;49.734;8.490;2023-07-13T06:20:33;0.82;;;0.77;;
45466;SDS011;31212;49.734;8.490;2023-07-13T06:23:01;3.85;;;1.17;;
45466;SDS011;31212;49.734;8.490;2023-07-13T06:25:27;2.00;;;0.98;;
45466;SDS011;31212;49.734;8.490;2023-07-13T06:27:55;1.90;;;0.85;;
45466;SDS011;31212;49.734;8.490;2023-07-13T06:30:21;1.60;;;1.00;;
45466;SDS011;31212;49.734;8.490;2023-07-13T06:32:48;3.40;;;1.13;;
45466;SDS011;31212;49.734;8.490;2023-07-13T06:35:15;1.45;;;0.93;;
45466;SDS011;31212;49.734;8.490;2023-07-13T06:37:41;2.63;;;0.85;;
45466;SDS011;31212;49.734;8.490;2023-07-13T06:40:08;2.72;;;0.90;;
45466;SDS011;31212;49.734;8.490;2023-07-13T06:42:35;2.65;;;0.70;;
45466;SDS011;31212;49.734;8.490;2023-07-13T06:45:05;12.93;;;0.90;;
45466;SDS011;31212;49.734;8.490;2023-07-13T06:47:32;3.42;;;0.80;;
45466;SDS011;31212;49.734;8.490;2023-07-13T06:49:59;6.78;;;0.85;;
45466;SDS011;31212;49.734;8.490;2023-07-13T06:52:26;1.70;;;0.70;;
45466;SDS011;31212;49.734;8.490;2023-07-13T06:54:53;2.70;;;0.70;;
45466;SDS011;31212;49.734;8.490;2023-07-13T06:57:19;1.35;;;0.73;;
45466;SDS011;31212;49.734;8.490;2023-07-13T06:59:45;0.73;;;0.68;;
45466;SDS011;31212;49.734;8.490;2023-07-13T07:02:13;1.45;;;0.68;;
45466;SDS011;31212;49.734;8.490;2023-07-13T07:04:40;2.50;;;1.00;;
45466;SDS011;31212;49.734;8.490;2023-07-13T07:07:06;1.52;;;0.73;;
45466;SDS011;31212;49.734;8.490;2023-07-13T07:09:33;1.40;;;0.70;;
45466;SDS011;31212;49.734;8.490;2023-07-13T07:11:59;1.75;;;0.70;;
45466;SDS011;31212;49.734;8.490;2023-07-13T07:14:25;2.97;;;1.13;;
45466;SDS011;31212;49.734;8.490;2023-07-13T07:16:52;2.00;;;0.98;;
45466;SDS011;31212;49.734;8.490;2023-07-13T07:19:20;1.52;;;0.73;;
45466;SDS011;31212;49.734;8.490;2023-07-13T07:21:46;2.47;;;0.60;;
45466;SDS011;31212;49.734;8.490;2023-07-13T07:24:13;1.52;;;0.90;;
45466;SDS011;31212;49.734;8.490;2023-07-13T07:26:40;2.28;;;0.70;;
45466;SDS011;31212;49.734;8.490;2023-07-13T07:29:07;3.50;;;0.93;;
45466;SDS011;31212;49.734;8.490;2023-07-13T07:31:33;5.22;;;0.82;;
45466;SDS011;31212;49.734;8.490;2023-07-13T07:34:02;2.03;;;0.55;;
45466;SDS011;31212;49.734;8.490;2023-07-13T07:36:30;5.32;;;0.95;;
45466;SDS011;31212;49.734;8.490;2023-07-13T07:38:56;2.83;;;0.73;;
45466;SDS011;31212;49.734;8.490;2023-07-13T07:41:23;1.20;;;0.68;;
45466;SDS011;31212;49.734;8.490;2023-07-13T07:43:49;0.98;;;0.70;;
45466;SDS011;31212;49.734;8.490;2023-07-13T07:46:16;8.60;;;0.93;;
45466;SDS011;31212;49.734;8.490;2023-07-13T07:48:42;1.15;;;0.70;;
45466;SDS011;31212;49.734;8.490;2023-07-13T07:51:09;1.40;;;0.50;;
45466;SDS011;31212;49.734;8.490;2023-07-13T07:53:36;1.60;;;0.75;;
45466;SDS011;31212;49.734;8.490;2023-07-13T07:56:03;2.15;;;0.93;;
45466;SDS011;31212;49.734;8.490;2023-07-13T07:58:30;2.05;;;0.80;;
45466;SDS011;31212;49.734;8.490;2023-07-13T08:01:01;3.28;;;0.75;;
45466;SDS011;31212;49.734;8.490;2023-07-13T08:03:28;1.38;;;1.00;;
45466;SDS011;31212;49.734;8.490;2023-07-13T08:05:55;1.80;;;0.80;;
45466;SDS011;31212;49.734;8.490;2023-07-13T08:08:21;1.90;;;0.60;;
45466;SDS011;31212;49.734;8.490;2023-07-13T08:10:49;1.30;;;0.82;;
45466;SDS011;31212;49.734;8.490;2023-07-13T08:13:15;2.38;;;0.90;;
45466;SDS011;31212;49.734;8.490;2023-07-13T08:15:42;2.25;;;0.90;;
45466;SDS011;31212;49.734;8.490;2023-07-13T08:18:08;2.15;;;0.85;;
45466;SDS011;31212;49.734;8.490;2023-07-13T08:20:36;1.50;;;1.15;;
45466;SDS011;31212;49.734;8.490;2023-07-13T08:23:03;3.78;;;0.93;;
45466;SDS011;31212;49.734;8.490;2023-07-13T08:25:30;0.60;;;0.43;;
45466;SDS011;31212;49.734;8.490;2023-07-13T08:27:58;2.70;;;0.80;;
45466;SDS011;31212;49.734;8.490;2023-07-13T08:30:24;0.70;;;0.63;;
45466;SDS011;31212;49.734;8.490;2023-07-13T08:32:51;0.60;;;0.50;;
45466;SDS011;31212;49.734;8.490;2023-07-13T08:35:17;1.65;;;0.85;;
45466;SDS011;31212;49.734;8.490;2023-07-13T08:37:44;4.75;;;0.95;;
45466;SDS011;31212;49.734;8.490;2023-07-13T08:40:10;1.38;;;0.82;;
45466;SDS011;31212;49.734;8.490;2023-07-13T08:42:39;2.13;;;1.20;;
45466;SDS011;31212;49.734;8.490;2023-07-13T08:45:14;3.80;;;0.77;;
45466;SDS011;31212;49.734;8.490;2023-07-13T08:47:47;1.75;;;0.75;;
45466;SDS011;31212;49.734;8.490;2023-07-13T08:50:19;2.50;;;0.90;;
45466;SDS011;31212;49.734;8.490;2023-07-13T08:52:50;3.05;;;0.90;;
45466;SDS011;31212;49.734;8.490;2023-07-13T08:55:18;1.85;;;0.60;;
45466;SDS011;31212;49.734;8.490;2023-07-13T08:57:48;1.60;;;0.70;;
45466;SDS011;31212;49.734;8.490;2023-07-13T09:00:24;3.25;;;0.63;;
45466;SDS011;31212;49.734;8.490;2023-07-13T09:02:58;5.10;;;0.70;;
45466;SDS011;31212;49.734;8.490;2023-07-13T09:05:28;4.97;;;0.90;;
45466;SDS011;31212;49.734;8.490;2023-07-13T09:08:00;1.10;;;0.85;;
45466;SDS011;31212;49.734;8.490;2023-07-13T09:10:36;1.17;;;0.60;;
45466;SDS011;31212;49.734;8.490;2023-07-13T09:13:13;3.35;;;0.95;;
45466;SDS011;31212;49.734;8.490;2023-07-13T09:15:48;2.70;;;1.05;;
45466;SDS011;31212;49.734;8.490;2023-07-13T09:18:16;2.83;;;1.23;;
45466;SDS011;31212;49.734;8.490;2023-07-13T09:20:52;2.92;;;0.60;;
45466;SDS011;31212;49.734;8.490;2023-07-13T09:23:23;2.10;;;1.20;;
45466;SDS011;31212;49.734;8.490;2023-07-13T09:25:51;1.52;;;0.68;;
45466;SDS011;31212;49.734;8.490;2023-07-13T09:28:22;1.83;;;0.75;;
45466;SDS011;31212;49.734;8.490;2023-07-13T09:30:53;2.97;;;0.80;;
45466;SDS011;31212;49.734;8.490;2023-07-13T09:33:26;1.10;;;0.60;;
45466;SDS011;31212;49.734;8.490;2023-07-13T09:35:54;2.60;;;0.68;;
45466;SDS011;31212;49.734;8.490;2023-07-13T09:38:21;3.20;;;0.82;;
45466;SDS011;31212;49.734;8.490;2023-07-13T09:40:57;0.70;;;0.40;;
45466;SDS011;31212;49.734;8.490;2023-07-13T09:43:29;3.20;;;1.00;;
45466;SDS011;31212;49.734;8.490;2023-07-13T09:45:56;2.28;;;0.68;;
45466;SDS011;31212;49.734;8.490;2023-07-13T09:48:23;1.00;;;0.68;;
45466;SDS011;31212;49.734;8.490;2023-07-13T09:50:53;5.60;;;1.85;;
45466;SDS011;31212;49.734;8.490;2023-07-13T09:53:21;0.68;;;0.47;;
45466;SDS011;31212;49.734;8.490;2023-07-13T09:55:48;4.10;;;0.40;;
45466;SDS011;31212;49.734;8.490;2023-07-13T09:58:15;1.92;;;0.90;;
45466;SDS011;31212;49.734;8.490;2023-07-13T10:00:55;1.70;;;0.88;;
45466;SDS011;31212;49.734;8.490;2023-07-13T10:03:25;1.02;;;0.63;;
45466;SDS011;31212;49.734;8.490;2023-07-13T10:05:53;1.42;;;0.70;;
45466;SDS011;31212;49.734;8.490;2023-07-13T10:08:21;2.40;;;0.88;;
45466;SDS011;31212;49.734;8.490;2023-07-13T10:10:53;1.80;;;0.50;;
45466;SDS011;31212;49.734;8.490;2023-07-13T10:13:29;1.92;;;0.80;;
45466;SDS011;31212;49.734;8.490;2023-07-13T10:16:00;1.05;;;0.85;;
45466;SDS011;31212;49.734;8.490;2023-07-13T10:18:28;0.57;;;0.50;;
45466;SDS011;31212;49.734;8.490;2023-07-13T10:21:07;3.67;;;0.85;;
45466;SDS011;31212;49.734;8.490;2023-07-13T10:23:37;3.08;;;0.73;;
45466;SDS011;31212;49.734;8.490;2023-07-13T10:26:04;2.28;;;0.70;;
45466;SDS011;31212;49.734;8.490;2023-07-13T10:28:37;1.15;;;0.63;;
45466;SDS011;31212;49.734;8.490;2023-07-13T10:31:07;2.40;;;0.65;;
45466;SDS011;31212;49.734;8.490;2023-07-13T10:33:40;4.45;;;0.93;;
45466;SDS011;31212;49.734;8.490;2023-07-13T10:36:11;3.95;;;0.75;;
45466;SDS011;31212;49.734;8.490;2023-07-13T10:38:41;1.52;;;0.88;;
45466;SDS011;31212;49.734;8.490;2023-07-13T10:41:09;3.97;;;0.85;;
45466;SDS011;31212;49.734;8.490;2023-07-13T10:43:39;2.00;;;0.55;;
45466;SDS011;31212;49.734;8.490;2023-07-13T10:46:11;2.50;;;0.57;;
45466;SDS011;31212;49.734;8.490;2023-07-13T10:48:42;0.88;;;0.50;;
45466;SDS011;31212;49.734;8.490;2023-07-13T10:51:12;1.55;;;0.90;;
45466;SDS011;31212;49.734;8.490;2023-07-13T10:53:41;9.65;;;1.55;;
45466;SDS011;31212;49.734;8.490;2023-07-13T10:56:16;1.65;;;1.02;;
45466;SDS011;31212;49.734;8.490;2023-07-13T10:58:48;2.03;;;0.77;;
45466;SDS011;31212;49.734;8.490;2023-07-13T11:01:40;0.90;;;0.50;;
45466;SDS011;31212;49.734;8.490;2023-07-13T11:04:17;0.80;;;0.70;;
45466;SDS011;31212;49.734;8.490;2023-07-13T11:06:47;1.27;;;0.98;;
45466;SDS011;31212;49.734;8.490;2023-07-13T11:09:25;1.45;;;0.80;;
45466;SDS011;31212;49.734;8.490;2023-07-13T11:11:58;1.05;;;0.60;;
45466;SDS011;31212;49.734;8.490;2023-07-13T11:14:27;4.07;;;0.82;;
45466;SDS011;31212;49.734;8.490;2023-07-13T11:17:07;2.85;;;0.93;;
45466;SDS011;31212;49.734;8.490;2023-07-13T11:20:08;2.22;;;1.17;;
45466;SDS011;31212;49.734;8.490;2023-07-13T11:23:06;1.35;;;1.00;;
45466;SDS011;31212;49.734;8.490;2023-07-13T11:25:44;1.48;;;1.15;;
45466;SDS011;31212;49.734;8.490;2023-07-13T11:28:14;3.53;;;0.90;;
45466;SDS011;31212;49.734;8.490;2023-07-13T11:33:15;2.90;;;0.88;;
45466;SDS011;31212;49.734;8.490;2023-07-13T11:35:50;2.42;;;0.50;;
45466;SDS011;31212;49.734;8.490;2023-07-13T11:38:24;3.92;;;0.90;;
45466;SDS011;31212;49.734;8.490;2023-07-13T11:40:56;1.33;;;0.63;;
45466;SDS011;31212;49.734;8.490;2023-07-13T11:43:28;1.63;;;0.57;;
45466;SDS011;31212;49.734;8.490;2023-07-13T11:45:54;4.43;;;0.50;;
45466;SDS011;31212;49.734;8.490;2023-07-13T11:48:23;1.30;;;0.82;;
45466;SDS011;31212;49.734;8.490;2023-07-13T11:50:53;4.90;;;0.90;;
45466;SDS011;31212;49.734;8.490;2023-07-13T11:53:22;1.88;;;1.02;;
45466;SDS011;31212;49.734;8.490;2023-07-13T11:55:52;1.88;;;0.70;;
45466;SDS011;31212;49.734;8.490;2023-07-13T11:58:21;1.83;;;0.75;;
45466;SDS011;31212;49.734;8.490;2023-07-13T12:00:50;2.58;;;1.45;;
45466;SDS011;31212;49.734;8.490;2023-07-13T12:03:20;2.28;;;0.75;;
45466;SDS011;31212;49.734;8.490;2023-07-13T12:05:57;0.80;;;0.57;;
45466;SDS011;31212;49.734;8.490;2023-07-13T12:08:25;3.15;;;0.70;;
45466;SDS011;31212;49.734;8.490;2023-07-13T12:10:59;1.65;;;0.70;;
45466;SDS011;31212;49.734;8.490;2023-07-13T12:13:34;0.50;;;0.50;;
45466;SDS011;31212;49.734;8.490;2023-07-13T12:18:29;0.95;;;0.63;;
45466;SDS011;31212;49.734;8.490;2023-07-13T12:21:00;2.13;;;0.55;;
45466;SDS011;31212;49.734;8.490;2023-07-13T12:23:29;2.97;;;0.95;;
45466;SDS011;31212;49.734;8.490;2023-07-13T12:25:57;1.15;;;0.85;;
45466;SDS011;31212;49.734;8.490;2023-07-13T12:28:30;1.17;;;0.60;;
45466;SDS011;31212;49.734;8.490;2023-07-13T12:30:59;0.65;;;0.60;;
45466;SDS011;31212;49.734;8.490;2023-07-13T12:33:28;2.28;;;0.60;;
45466;SDS011;31212;49.734;8.490;2023-07-13T12:35:55;3.25;;;1.20;;
45466;SDS011;31212;49.734;8.490;2023-07-13T12:38:25;1.25;;;0.80;;
45466;SDS011;31212;49.734;8.490;2023-07-13T12:40:52;0.93;;;0.68;;
45466;SDS011;31212;49.734;8.490;2023-07-13T12:43:19;1.73;;;0.70;;
45466;SDS011;31212;49.734;8.490;2023-07-13T12:45:57;3.92;;;0.77;;
45466;SDS011;31212;49.734;8.490;2023-07-13T12:48:25;3.50;;;1.02;;
45466;SDS011;31212;49.734;8.490;2023-07-13T12:50:52;1.55;;;0.75;;
45466;SDS011;31212;49.734;8.490;2023-07-13T12:53:21;0.90;;;0.60;;
45466;SDS011;31212;49.734;8.490;2023-07-13T12:55:52;1.80;;;0.65;;
45466;SDS011;31212;49.734;8.490;2023-07-13T12:58:22;1.33;;;1.07;;
45466;SDS011;31212;49.734;8.490;2023-07-13T13:00:53;10.30;;;1.17;;
45466;SDS011;31212;49.734;8.490;2023-07-13T13:03:23;3.47;;;0.77;;
45466;SDS011;31212;49.734;8.490;2023-07-13T13:06:01;2.15;;;0.80;;
45466;SDS011;31212;49.734;8.490;2023-07-13T13:08:30;1.75;;;0.57;;
45466;SDS011;31212;49.734;8.490;2023-07-13T13:10:58;5.20;;;1.00;;
45466;SDS011;31212;49.734;8.490;2023-07-13T13:13:24;6.97;;;1.05;;
45466;SDS011;31212;49.734;8.490;2023-07-13T13:15:51;7.00;;;0.88;;
45466;SDS011;31212;49.734;8.490;2023-07-13T13:18:19;2.85;;;0.70;;
45466;SDS011;31212;49.734;8.490;2023-07-13T13:20:47;1.45;;;0.70;;
45466;SDS011;31212;49.734;8.490;2023-07-13T13:23:14;1.48;;;0.63;;
45466;SDS011;31212;49.734;8.490;2023-07-13T13:25:43;0.75;;;0.75;;
45466;SDS011;31212;49.734;8.490;2023-07-13T13:28:14;1.95;;;1.00;;
45466;SDS011;31212;49.734;8.490;2023-07-13T13:30:43;5.45;;;1.20;;
45466;SDS011;31212;49.734;8.490;2023-07-13T13:33:10;1.13;;;0.60;;
45466;SDS011;31212;49.734;8.490;2023-07-13T13:35:37;6.28;;;1.20;;
45466;SDS011;31212;49.734;8.490;2023-07-13T13:38:08;5.07;;;0.95;;
45466;SDS011;31212;49.734;8.490;2023-07-13T13:40:36;3.92;;;0.70;;
45466;SDS011;31212;49.734;8.490;2023-07-13T13:43:04;1.42;;;0.75;;
45466;SDS011;31212;49.734;8.490;2023-07-13T13:45:41;2.40;;;0.63;;
45466;SDS011;31212;49.734;8.490;2023-07-13T13:48:07;2.08;;;0.90;;
45466;SDS011;31212;49.734;8.490;2023-07-13T13:53:07;1.25;;;0.95;;
45466;SDS011;31212;49.734;8.490;2023-07-13T13:55:35;1.80;;;0.70;;
45466;SDS011;31212;49.734;8.490;2023-07-13T13:58:02;1.60;;;1.02;;
45466;SDS011;31212;49.734;8.490;2023-07-13T14:00:28;14.23;;;1.55;;
45466;SDS011;31212;49.734;8.490;2023-07-13T14:02:56;1.50;;;0.70;;
45466;SDS011;31212;49.734;8.490;2023-07-13T14:05:25;3.85;;;0.80;;
45466;SDS011;31212;49.734;8.490;2023-07-13T14:07:52;4.25;;;0.93;;
45466;SDS011;31212;49.734;8.490;2023-07-13T14:10:19;4.50;;;1.05;;
45466;SDS011;31212;49.734;8.490;2023-07-13T14:12:47;2.15;;;0.80;;
45466;SDS011;31212;49.734;8.490;2023-07-13T14:15:18;2.40;;;1.25;;
45466;SDS011;31212;49.734;8.490;2023-07-13T14:17:47;2.00;;;0.73;;
45466;SDS011;31212;49.734;8.490;2023-07-13T14:20:16;3.28;;;0.73;;
45466;SDS011;31212;49.734;8.490;2023-07-13T14:22:44;5.00;;;1.17;;
45466;SDS011;31212;49.734;8.490;2023-07-13T14:25:12;2.60;;;0.73;;
45466;SDS011;31212;49.734;8.490;2023-07-13T14:27:39;2.67;;;0.95;;
45466;SDS011;31212;49.734;8.490;2023-07-13T14:30:11;0.73;;;0.70;;
45466;SDS011;31212;49.734;8.490;2023-07-13T14:32:39;1.92;;;0.90;;
45466;SDS011;31212;49.734;8.490;2023-07-13T14:35:06;2.28;;;0.65;;
45466;SDS011;31212;49.734;8.490;2023-07-13T14:37:35;1.60;;;1.00;;
45466;SDS011;31212;49.734;8.490;2023-07-13T14:40:04;1.58;;;0.63;;
45466;SDS011;31212;49.734;8.490;2023-07-13T14:42:37;10.70;;;1.55;;
45466;SDS011;31212;49.734;8.490;2023-07-13T14:45:04;0.47;;;0.43;;
45466;SDS011;31212;49.734;8.490;2023-07-13T14:47:35;3.72;;;0.85;;
45466;SDS011;31212;49.734;8.490;2023-07-13T14:50:02;0.73;;;0.73;;
45466;SDS011;31212;49.734;8.490;2023-07-13T14:52:30;0.70;;;0.70;;
45466;SDS011;31212;49.734;8.490;2023-07-13T14:54:58;4.22;;;0.60;;
45466;SDS011;31212;49.734;8.490;2023-07-13T14:57:24;2.17;;;0.60;;
45466;SDS011;31212;49.734;8.490;2023-07-13T14:59:51;1.17;;;0.52;;
45466;SDS011;31212;49.734;8.490;2023-07-13T15:02:19;4.00;;;0.68;;
45466;SDS011;31212;49.734;8.490;2023-07-13T15:04:52;1.45;;;0.57;;
45466;SDS011;31212;49.734;8.490;2023-07-13T15:07:19;2.58;;;0.80;;
45466;SDS011;31212;49.734;8.490;2023-07-13T15:09:46;0.40;;;0.40;;